createdAt,value
2018-07-25T00:01:55.009Z,23.20
2018-07-25T00:03:59.028Z,23.50
2018-07-25T00:06:02.867Z,23.60
2018-07-25T00:08:06.687Z,24.10
2018-07-25T00:10:10.971Z,23.30
2018-07-25T00:16:21.593Z,23.20
2018-07-25T00:20:28.790Z,23.30
2018-07-25T00:22:32.610Z,22.90
2018-07-25T00:24:37.952Z,23.70
2018-07-25T00:26:41.808Z,23.40
2018-07-25T00:28:45.570Z,23.40
2018-07-25T00:30:49.436Z,23.30
2018-07-25T00:32:53.217Z,23.00
2018-07-25T00:34:57.046Z,23.20
2018-07-25T00:37:00.975Z,23.30
2018-07-25T00:39:06.108Z,22.90
2018-07-25T00:41:10.028Z,22.60
2018-07-25T00:43:13.809Z,23.30
2018-07-25T00:45:17.683Z,23.20
2018-07-25T00:47:21.536Z,22.90
2018-07-25T00:49:25.349Z,23.40
2018-07-25T00:51:29.216Z,23.40
2018-07-25T00:55:36.492Z,23.10
2018-07-25T00:57:40.475Z,22.60
2018-07-25T00:59:44.306Z,22.90
2018-07-25T01:01:48.164Z,23.50
2018-07-25T01:03:52.112Z,22.80
2018-07-25T01:05:55.870Z,22.60
2018-07-25T01:07:59.638Z,23.00
2018-07-25T01:10:03.517Z,22.90
2018-07-25T01:12:07.440Z,22.70
2018-07-25T01:14:11.225Z,23.00
2018-07-25T01:16:15.059Z,22.50
2018-07-25T01:18:18.855Z,22.90
2018-07-25T01:20:22.666Z,22.60
2018-07-25T01:22:26.489Z,22.50
2018-07-25T01:24:30.295Z,22.20
2018-07-25T01:28:37.523Z,22.30
2018-07-25T01:30:41.361Z,22.50
2018-07-25T01:32:45.291Z,22.70
2018-07-25T01:34:49.094Z,22.40
2018-07-25T01:36:52.867Z,21.90
2018-07-25T01:38:56.659Z,22.00
2018-07-25T01:41:00.478Z,22.40
2018-07-25T01:43:04.276Z,22.50
2018-07-25T01:45:08.115Z,22.10
2018-07-25T01:47:11.954Z,22.00
2018-07-25T01:49:15.791Z,22.50
2018-07-25T01:51:19.583Z,22.00
2018-07-25T01:55:26.865Z,22.00
2018-07-25T01:57:30.680Z,22.20
2018-07-25T02:01:38.100Z,22.20
2018-07-25T02:03:41.924Z,21.80
2018-07-25T02:05:45.793Z,21.90
2018-07-25T02:07:49.751Z,22.50
2018-07-25T02:09:53.894Z,22.20
2018-07-25T02:14:01.393Z,22.00
2018-07-25T02:16:05.169Z,21.90
2018-07-25T02:18:09.076Z,21.70
2018-07-25T02:20:12.946Z,22.10
2018-07-25T02:22:16.746Z,21.90
2018-07-25T02:24:20.561Z,22.00
2018-07-25T02:26:24.595Z,21.90
2018-07-25T02:28:29.016Z,21.60
2018-07-25T02:30:32.820Z,21.70
2018-07-25T02:32:36.636Z,21.40
2018-07-25T02:34:40.426Z,21.50
2018-07-25T02:36:44.157Z,21.40
2018-07-25T02:38:47.929Z,21.80
2018-07-25T02:40:51.711Z,21.80
2018-07-25T02:42:55.469Z,21.30
2018-07-25T02:44:59.321Z,21.20
2018-07-25T02:47:03.167Z,21.70
2018-07-25T02:49:07.342Z,22.20
2018-07-25T02:53:15.643Z,21.50
2018-07-25T02:55:19.450Z,21.60
2018-07-25T02:57:23.264Z,21.50
2018-07-25T02:59:27.017Z,21.30
2018-07-25T03:03:34.246Z,21.90
2018-07-25T03:07:42.366Z,21.80
2018-07-25T03:09:47.068Z,21.70
2018-07-25T03:11:51.372Z,21.20
2018-07-25T03:13:55.708Z,21.30
2018-07-25T03:16:07.160Z,21.30
2018-07-25T03:18:11.401Z,21.00
2018-07-25T03:20:15.687Z,21.30
2018-07-25T03:22:20.138Z,21.40
2018-07-25T03:24:24.591Z,21.40
2018-07-25T03:26:30.977Z,21.00
2018-07-25T03:28:35.136Z,21.30
2018-07-25T03:30:45.319Z,21.00
2018-07-25T03:32:49.557Z,20.90
2018-07-25T03:34:53.543Z,21.60
2018-07-25T03:37:00.516Z,20.90
2018-07-25T03:41:10.035Z,20.50
2018-07-25T03:43:14.087Z,21.10
2018-07-25T03:45:18.250Z,20.50
2018-07-25T03:49:26.143Z,20.50
2018-07-25T03:51:30.199Z,20.80
2018-07-25T03:55:37.723Z,20.70
2018-07-25T03:57:41.922Z,20.80
2018-07-25T03:59:46.046Z,20.80
2018-07-25T04:01:50.058Z,20.70
2018-07-25T04:05:57.675Z,20.60
2018-07-25T04:08:01.553Z,20.50
2018-07-25T04:10:05.558Z,20.70
2018-07-25T04:12:09.725Z,20.80
2018-07-25T04:14:13.709Z,20.90
2018-07-25T04:16:18.692Z,20.70
2018-07-25T04:18:22.541Z,20.60
2018-07-25T04:22:29.774Z,21.00
2018-07-25T04:24:33.616Z,20.90
2018-07-25T04:26:37.986Z,20.60
2018-07-25T04:28:42.109Z,21.00
2018-07-25T04:30:45.923Z,21.10
2018-07-25T04:32:49.673Z,21.30
2018-07-25T04:39:00.336Z,21.00
2018-07-25T04:41:04.113Z,21.00
2018-07-25T04:43:07.966Z,21.10
2018-07-25T04:45:12.049Z,21.10
2018-07-25T04:47:15.813Z,21.10
2018-07-25T04:49:19.668Z,21.20
2018-07-25T04:51:23.413Z,21.20
2018-07-25T04:53:27.133Z,21.30
2018-07-25T04:57:34.307Z,21.30
2018-07-25T04:59:38.048Z,21.30
2018-07-25T05:01:42.008Z,21.50
2018-07-25T05:03:45.835Z,21.60
2018-07-25T05:05:49.570Z,21.60
2018-07-25T05:07:53.385Z,21.80
2018-07-25T05:09:57.158Z,22.10
2018-07-25T05:12:01.350Z,22.10
2018-07-25T05:14:05.853Z,22.00
2018-07-25T05:16:09.956Z,22.10
2018-07-25T05:20:17.667Z,22.30
2018-07-25T05:24:24.863Z,22.20
2018-07-25T05:26:28.683Z,22.50
2018-07-25T05:28:32.593Z,22.30
2018-07-25T05:30:36.406Z,22.40
2018-07-25T05:32:40.164Z,22.70
2018-07-25T05:34:43.945Z,23.10
2018-07-25T05:36:47.753Z,23.00
2018-07-25T05:38:51.530Z,22.90
2018-07-25T05:40:55.305Z,23.20
2018-07-25T05:42:59.120Z,23.20
2018-07-25T05:45:02.899Z,23.30
2018-07-25T05:47:06.782Z,23.40
2018-07-25T05:49:10.619Z,23.50
2018-07-25T05:51:14.473Z,23.60
2018-07-25T05:53:18.249Z,23.40
2018-07-25T05:55:22.057Z,23.50
2018-07-25T05:57:25.856Z,23.70
2018-07-25T05:59:29.604Z,23.70
2018-07-25T06:01:33.372Z,23.50
2018-07-25T06:03:37.163Z,23.70
2018-07-25T06:05:41.031Z,23.90
2018-07-25T06:07:44.840Z,24.10
2018-07-25T06:09:48.604Z,24.30
2018-07-25T06:11:52.418Z,24.40
2018-07-25T06:13:56.193Z,24.40
2018-07-25T06:15:59.983Z,24.60
2018-07-25T06:18:03.841Z,24.70
2018-07-25T06:20:08.756Z,24.80
2018-07-25T06:22:12.549Z,24.60
2018-07-25T06:24:16.530Z,25.00
2018-07-25T06:26:20.370Z,25.00
2018-07-25T06:28:24.135Z,25.00
2018-07-25T06:30:27.941Z,25.40
2018-07-25T06:32:31.692Z,25.50
2018-07-25T06:34:35.575Z,25.60
2018-07-25T06:36:39.416Z,25.70
2018-07-25T06:38:43.200Z,25.70
2018-07-25T06:40:47.052Z,25.80
2018-07-25T06:42:50.884Z,25.80
2018-07-25T06:44:54.662Z,25.90
2018-07-25T06:49:01.884Z,26.20
2018-07-25T06:51:05.722Z,26.10
2018-07-25T06:53:09.536Z,26.10
2018-07-25T06:55:13.344Z,26.40
2018-07-25T06:57:18.154Z,26.60
2018-07-25T07:01:27.548Z,26.60
2018-07-25T07:03:31.404Z,27.10
2018-07-25T07:05:35.271Z,27.00
2018-07-25T07:07:39.015Z,27.30
2018-07-25T07:09:42.788Z,27.00
2018-07-25T07:11:46.588Z,27.40
2018-07-25T07:13:50.601Z,27.70
2018-07-25T07:15:54.388Z,27.60
2018-07-25T07:17:58.214Z,27.90
2018-07-25T07:20:01.999Z,28.10
2018-07-25T07:22:06.220Z,28.20
2018-07-25T07:24:10.079Z,28.50
2018-07-25T07:26:13.895Z,29.20
2018-07-25T07:30:21.332Z,29.60
2018-07-25T07:32:25.110Z,28.80
2018-07-25T07:34:28.910Z,29.20
2018-07-25T07:36:32.697Z,29.00
2018-07-25T07:38:36.548Z,29.40
2018-07-25T07:40:40.360Z,29.30
2018-07-25T07:42:45.347Z,29.30
2018-07-25T07:44:49.407Z,29.80
2018-07-25T07:46:53.158Z,30.00
2018-07-25T07:48:57.000Z,30.20
2018-07-25T07:51:00.838Z,30.80
2018-07-25T07:53:04.733Z,31.00
2018-07-25T07:55:08.809Z,32.10
2018-07-25T07:59:16.446Z,32.20
2018-07-25T08:01:20.272Z,32.20
2018-07-25T08:03:24.122Z,32.70
2018-07-25T08:05:28.148Z,33.30
2018-07-25T08:07:32.002Z,33.10
2018-07-25T08:09:35.775Z,33.80
2018-07-25T08:11:39.532Z,33.80
2018-07-25T08:13:43.284Z,33.60
2018-07-25T08:15:47.051Z,33.80
2018-07-25T08:17:50.813Z,33.60
2018-07-25T08:19:54.620Z,33.60
2018-07-25T08:24:01.754Z,32.10
2018-07-25T08:26:05.585Z,31.80
2018-07-25T08:34:20.660Z,32.40
2018-07-25T08:36:24.430Z,32.20
2018-07-25T08:40:38.617Z,35.00
2018-07-25T08:42:42.345Z,35.60
2018-07-25T08:46:49.551Z,35.80
2018-07-25T09:13:39.592Z,36.60
2018-07-25T09:15:43.569Z,37.10
2018-07-25T09:19:50.791Z,37.00
2018-07-25T09:21:54.756Z,36.30
2018-07-25T09:23:58.499Z,36.40
2018-07-25T09:26:02.294Z,36.60
2018-07-25T09:28:06.318Z,36.30
2018-07-25T09:34:16.933Z,33.30
2018-07-25T09:38:24.141Z,33.50
2018-07-25T09:40:27.915Z,34.00
2018-07-25T09:42:31.752Z,33.90
2018-07-25T09:44:36.489Z,33.60
2018-07-25T09:46:40.360Z,32.50
2018-07-25T09:48:44.126Z,32.40
2018-07-25T09:50:47.936Z,32.90
2018-07-25T09:52:51.756Z,32.70
2018-07-25T09:54:55.574Z,32.90
2018-07-25T09:56:59.361Z,32.90
2018-07-25T09:59:03.211Z,33.10
2018-07-25T10:01:07.304Z,33.10
2018-07-25T10:03:11.358Z,33.20
2018-07-25T10:05:15.144Z,32.50
2018-07-25T10:09:22.371Z,32.50
2018-07-25T10:13:29.781Z,32.40
2018-07-25T10:15:33.648Z,33.00
2018-07-25T10:17:37.418Z,33.00
2018-07-25T10:19:41.438Z,32.70
2018-07-25T10:21:45.328Z,32.90
2018-07-25T10:25:53.432Z,32.20
2018-07-25T10:27:57.320Z,32.60
2018-07-25T10:30:01.086Z,32.30
2018-07-25T10:32:04.969Z,32.30
2018-07-25T10:34:08.849Z,32.70
2018-07-25T10:36:12.620Z,32.20
2018-07-25T10:38:16.479Z,31.90
2018-07-25T10:40:20.294Z,32.00
2018-07-25T10:42:24.453Z,32.40
2018-07-25T10:44:28.247Z,32.40
2018-07-25T10:46:32.091Z,32.30
2018-07-25T10:48:35.834Z,32.40
2018-07-25T10:50:39.619Z,32.10
2018-07-25T10:52:43.416Z,31.90
2018-07-25T10:54:47.536Z,31.90
2018-07-25T10:56:51.347Z,32.70
2018-07-25T10:58:55.107Z,32.60
2018-07-25T11:00:58.936Z,32.90
2018-07-25T11:03:02.728Z,32.90
2018-07-25T11:05:06.935Z,33.00
2018-07-25T11:07:10.716Z,32.80
2018-07-25T11:09:14.796Z,33.00
2018-07-25T11:11:18.578Z,32.30
2018-07-25T11:13:22.352Z,32.80
2018-07-25T11:15:26.128Z,32.90
2018-07-25T11:17:30.115Z,32.60
2018-07-25T11:19:33.894Z,32.60
2018-07-25T11:21:37.677Z,32.80
2018-07-25T11:23:41.437Z,32.70
2018-07-25T11:25:45.240Z,32.70
2018-07-25T11:27:49.055Z,32.30
2018-07-25T11:29:52.839Z,32.20
2018-07-25T11:31:56.622Z,32.40
2018-07-25T11:34:00.392Z,32.50
2018-07-25T11:36:04.723Z,32.70
2018-07-25T11:38:08.567Z,32.40
2018-07-25T11:40:12.583Z,32.20
2018-07-25T11:42:16.364Z,32.20
2018-07-25T11:44:20.177Z,32.50
2018-07-25T11:46:23.915Z,32.40
2018-07-25T11:48:27.731Z,32.50
2018-07-25T11:50:31.516Z,32.50
2018-07-25T11:52:35.315Z,32.60
2018-07-25T11:54:39.049Z,32.60
2018-07-25T11:56:42.840Z,32.90
2018-07-25T11:58:46.647Z,32.70
2018-07-25T12:00:50.461Z,32.70
2018-07-25T12:02:54.220Z,32.50
2018-07-25T12:04:57.968Z,32.60
2018-07-25T12:09:08.668Z,31.90
2018-07-25T12:11:12.447Z,32.90
2018-07-25T12:13:16.294Z,32.30
2018-07-25T12:15:20.090Z,32.70
2018-07-25T12:19:27.260Z,33.10
2018-07-25T12:21:31.054Z,32.90
2018-07-25T12:23:34.851Z,32.80
2018-07-25T12:25:38.696Z,32.90
2018-07-25T12:27:42.531Z,33.10
2018-07-25T12:29:46.306Z,32.80
2018-07-25T12:31:50.143Z,32.80
2018-07-25T12:33:53.935Z,32.90
2018-07-25T12:35:57.776Z,33.10
2018-07-25T12:38:01.608Z,33.10
2018-07-25T12:40:05.782Z,32.90
2018-07-25T12:42:09.657Z,33.70
2018-07-25T12:44:13.466Z,33.10
2018-07-25T12:46:17.537Z,33.30
2018-07-25T12:48:21.400Z,33.10
2018-07-25T12:50:25.210Z,33.10
2018-07-25T12:52:28.992Z,32.90
2018-07-25T12:54:32.796Z,33.10
2018-07-25T12:56:36.575Z,33.30
2018-07-25T12:58:40.377Z,33.10
2018-07-25T13:00:44.251Z,32.90
2018-07-25T13:02:48.123Z,33.00
2018-07-25T13:04:51.902Z,33.30
2018-07-25T13:06:55.713Z,33.40
2018-07-25T13:08:59.549Z,33.10
2018-07-25T13:11:03.372Z,33.10
2018-07-25T13:13:07.177Z,33.10
2018-07-25T13:15:11.073Z,33.10
2018-07-25T13:17:14.934Z,33.00
2018-07-25T13:19:18.875Z,33.00
2018-07-25T13:21:22.668Z,33.00
2018-07-25T13:23:26.453Z,33.20
2018-07-25T13:25:30.261Z,32.90
2018-07-25T13:27:34.069Z,32.80
2018-07-25T13:29:37.867Z,32.60
2018-07-25T13:31:41.701Z,32.80
2018-07-25T13:33:45.754Z,32.80
2018-07-25T13:35:49.528Z,33.00
2018-07-25T13:37:53.425Z,33.00
2018-07-25T13:39:57.202Z,33.30
2018-07-25T13:42:01.004Z,33.30
2018-07-25T13:44:05.107Z,33.10
2018-07-25T13:46:09.099Z,33.10
2018-07-25T13:48:12.780Z,33.10
2018-07-25T13:50:16.597Z,33.10
2018-07-25T13:52:20.401Z,33.00
2018-07-25T13:54:24.234Z,32.80
2018-07-25T13:56:28.083Z,32.80
2018-07-25T13:58:31.915Z,32.60
2018-07-25T14:00:35.702Z,32.40
2018-07-25T14:02:39.529Z,32.50
2018-07-25T14:04:43.306Z,32.60
2018-07-25T14:06:47.193Z,32.40
2018-07-25T14:08:50.979Z,32.40
2018-07-25T14:10:54.831Z,32.70
2018-07-25T14:12:58.825Z,32.80
2018-07-25T14:15:02.624Z,33.00
2018-07-25T14:17:06.513Z,33.10
2018-07-25T14:19:10.792Z,33.10
2018-07-25T14:21:15.187Z,33.00
2018-07-25T14:23:19.116Z,33.00
2018-07-25T14:25:23.413Z,33.00
2018-07-25T14:27:27.189Z,33.00
2018-07-25T14:29:31.048Z,33.10
2018-07-25T14:31:34.839Z,33.00
2018-07-25T14:33:38.696Z,33.10
2018-07-25T14:35:42.464Z,33.00
2018-07-25T14:37:46.267Z,33.10
2018-07-25T14:39:50.120Z,33.10
2018-07-25T14:41:54.193Z,33.10
2018-07-25T14:43:57.987Z,33.40
2018-07-25T14:46:01.787Z,33.30
2018-07-25T14:50:09.232Z,33.00
2018-07-25T14:52:13.253Z,32.90
2018-07-25T14:54:17.199Z,33.10
2018-07-25T14:56:22.123Z,33.20
2018-07-25T14:58:26.065Z,33.30
2018-07-25T15:00:29.939Z,33.40
2018-07-25T15:02:33.948Z,33.50
2018-07-25T15:04:37.816Z,33.60
2018-07-25T15:08:45.083Z,33.60
2018-07-25T15:10:48.959Z,33.40
2018-07-25T15:12:56.828Z,33.20
2018-07-25T15:15:00.704Z,33.10
2018-07-25T15:17:04.592Z,32.70
2018-07-25T15:19:08.387Z,32.40
2018-07-25T15:21:12.256Z,32.40
2018-07-25T15:23:25.999Z,32.10
2018-07-25T15:25:29.839Z,32.20
2018-07-25T15:27:33.718Z,32.30
2018-07-25T15:29:37.531Z,32.50
2018-07-25T15:31:41.517Z,32.60
2018-07-25T15:33:45.589Z,32.50
2018-07-25T15:35:49.362Z,32.50
2018-07-25T15:37:53.165Z,32.50
2018-07-25T15:39:56.963Z,32.50
2018-07-25T15:42:00.806Z,32.70
2018-07-25T15:44:04.623Z,32.80
2018-07-25T15:46:08.506Z,32.70
2018-07-25T15:48:12.337Z,32.70
2018-07-25T15:50:16.224Z,32.80
2018-07-25T15:52:20.209Z,32.90
2018-07-25T15:54:24.051Z,32.90
2018-07-25T15:56:27.918Z,32.70
2018-07-25T15:58:31.771Z,32.60
2018-07-25T16:00:35.541Z,32.60
2018-07-25T16:02:39.515Z,32.50
2018-07-25T16:04:43.285Z,32.40
2018-07-25T16:06:47.148Z,32.40
2018-07-25T16:08:51.040Z,32.40
2018-07-25T16:10:54.892Z,32.40
2018-07-25T16:12:58.684Z,32.30
2018-07-25T16:15:02.634Z,32.00
2018-07-25T16:17:06.704Z,31.70
2018-07-25T16:21:14.238Z,31.50
2018-07-25T16:23:18.274Z,31.40
2018-07-25T16:25:22.117Z,31.10
2018-07-25T16:27:25.961Z,31.00
2018-07-25T16:29:29.758Z,30.80
2018-07-25T16:31:33.648Z,30.60
2018-07-25T16:33:37.509Z,30.50
2018-07-25T16:35:41.307Z,30.30
2018-07-25T16:37:45.134Z,30.20
2018-07-25T16:39:48.940Z,30.10
2018-07-25T16:41:52.797Z,30.10
2018-07-25T16:43:56.701Z,30.00
2018-07-25T16:46:00.706Z,30.00
2018-07-25T16:48:04.540Z,30.00
2018-07-25T16:50:08.372Z,30.10
2018-07-25T16:52:12.346Z,30.10
2018-07-25T16:54:16.311Z,30.20
2018-07-25T16:56:20.106Z,30.40
2018-07-25T16:58:23.946Z,30.50
2018-07-25T17:00:27.967Z,30.50
2018-07-25T17:02:31.970Z,30.40
2018-07-25T17:04:35.714Z,30.40
2018-07-25T17:06:39.551Z,30.40
2018-07-25T17:08:43.355Z,30.40
2018-07-25T17:10:47.133Z,30.40
2018-07-25T17:12:51.142Z,30.30
2018-07-25T17:14:54.946Z,25.40
2018-07-25T17:16:58.752Z,22.10
2018-07-25T17:19:02.571Z,21.40
2018-07-25T17:21:06.953Z,21.10
2018-07-25T17:23:10.784Z,20.60
2018-07-25T17:25:14.658Z,20.50
2018-07-25T17:27:18.436Z,20.50
2018-07-25T17:29:22.280Z,20.30
2018-07-25T17:31:26.189Z,20.60
2018-07-25T17:33:29.998Z,20.20
2018-07-25T17:35:33.804Z,20.30
2018-07-25T17:37:37.621Z,20.10
2018-07-25T17:39:41.700Z,20.70
2018-07-25T17:41:46.252Z,21.50
2018-07-25T17:43:50.104Z,21.80
2018-07-25T17:45:53.978Z,21.90
2018-07-25T17:47:57.778Z,21.90
2018-07-25T17:50:01.538Z,22.10
2018-07-25T17:52:05.585Z,22.10
2018-07-25T17:54:09.446Z,22.20
2018-07-25T17:56:13.274Z,22.10
2018-07-25T17:58:17.256Z,22.40
2018-07-25T18:00:21.283Z,22.50
2018-07-25T18:02:25.317Z,22.40
2018-07-25T18:04:29.180Z,22.40
2018-07-25T18:06:33.010Z,22.50
2018-07-25T18:08:37.009Z,22.70
2018-07-25T18:10:40.988Z,22.90
2018-07-25T18:12:44.756Z,22.60
2018-07-25T18:14:48.560Z,22.80
2018-07-25T18:16:52.357Z,22.60
2018-07-25T18:18:56.579Z,22.60
2018-07-25T18:21:00.723Z,22.70
2018-07-25T18:23:04.574Z,22.80
2018-07-25T18:25:08.542Z,22.70
2018-07-25T18:27:12.348Z,22.80
2018-07-25T18:29:16.203Z,22.70
2018-07-25T18:31:20.035Z,22.70
2018-07-25T18:33:24.163Z,22.70
2018-07-25T18:35:27.935Z,22.80
2018-07-25T18:37:31.745Z,23.00
2018-07-25T18:39:35.802Z,23.00
2018-07-25T18:41:40.254Z,23.00
2018-07-25T18:43:44.136Z,23.10
2018-07-25T18:45:48.254Z,23.30
2018-07-25T18:47:52.119Z,23.30
2018-07-25T18:49:55.993Z,23.80
2018-07-25T18:52:00.014Z,23.90
2018-07-25T18:54:03.871Z,23.90
2018-07-25T18:56:08.072Z,23.70
2018-07-25T18:58:11.878Z,23.90
2018-07-25T19:00:15.898Z,24.10
2018-07-25T19:02:19.734Z,24.20
2018-07-25T19:04:23.551Z,24.10
2018-07-25T19:06:27.361Z,24.30
2018-07-25T19:08:31.315Z,24.30
2018-07-25T19:10:35.160Z,24.40
2018-07-25T19:12:39.103Z,24.40
2018-07-25T19:14:48.214Z,24.20
2018-07-25T19:16:52.103Z,24.30
2018-07-25T19:18:55.860Z,24.30
2018-07-25T19:20:59.995Z,24.30
2018-07-25T19:23:03.878Z,24.40
2018-07-25T19:25:07.750Z,24.40
2018-07-25T19:36:10.506Z,25.60
2018-07-25T19:38:14.429Z,25.70
2018-07-25T19:40:18.320Z,25.60
2018-07-25T19:42:22.566Z,25.50
2018-07-25T19:44:26.696Z,25.50
2018-07-25T19:46:31.005Z,25.50
2018-07-25T19:48:35.289Z,25.50
2018-07-25T19:50:39.261Z,25.70
2018-07-25T19:52:43.322Z,25.70
2018-07-25T19:54:47.386Z,25.70
2018-07-25T19:56:52.363Z,25.70
2018-07-25T19:58:56.156Z,25.70
2018-07-25T20:01:00.060Z,25.60
2018-07-25T20:03:04.155Z,25.50
2018-07-25T20:05:08.115Z,25.50
2018-07-25T20:07:12.313Z,25.50
2018-07-25T20:09:16.171Z,25.50
2018-07-25T20:11:19.939Z,25.60
2018-07-25T20:13:23.773Z,26.00
2018-07-25T20:15:32.728Z,26.00
2018-07-25T20:17:36.707Z,25.90
2018-07-25T20:19:40.701Z,25.90
2018-07-25T20:23:48.110Z,26.00
2018-07-25T20:25:51.950Z,26.70
2018-07-25T20:27:55.883Z,27.30
2018-07-25T20:29:59.764Z,27.80
2018-07-25T20:32:03.644Z,28.00
2018-07-25T20:34:07.501Z,28.30
2018-07-25T20:36:11.315Z,28.30
2018-07-25T20:38:15.389Z,28.30
2018-07-25T20:40:19.206Z,28.50
2018-07-25T20:42:23.161Z,28.40
2018-07-25T20:44:26.995Z,27.90
2018-07-25T20:46:30.741Z,27.50
2018-07-25T20:48:34.761Z,27.20
2018-07-25T20:50:38.519Z,26.90
2018-07-25T20:52:42.609Z,26.60
2018-07-25T20:54:46.507Z,26.40
2018-07-25T20:56:50.280Z,26.20
2018-07-25T20:58:54.073Z,26.10
2018-07-25T21:00:59.018Z,26.20
2018-07-25T21:03:04.465Z,26.80
2018-07-25T21:05:08.340Z,27.40
2018-07-25T21:07:12.129Z,27.60
2018-07-25T21:09:16.099Z,27.90
2018-07-25T21:11:20.215Z,27.80
2018-07-25T21:13:23.947Z,28.00
2018-07-25T21:15:27.817Z,28.00
2018-07-25T21:17:31.580Z,27.90
2018-07-25T21:19:35.337Z,27.50
2018-07-25T21:21:39.126Z,27.10
2018-07-25T21:23:49.660Z,26.80
2018-07-25T21:25:53.484Z,26.40
2018-07-25T21:27:57.340Z,26.10
2018-07-25T21:30:01.113Z,25.90
2018-07-25T21:32:04.995Z,25.70
2018-07-25T21:34:08.888Z,25.60
2018-07-25T21:36:12.636Z,25.70
2018-07-25T21:38:16.597Z,26.40
2018-07-25T21:40:20.413Z,27.00
2018-07-25T21:42:24.252Z,27.30
2018-07-25T21:44:28.033Z,27.50
2018-07-25T21:46:31.836Z,27.50
2018-07-25T21:48:35.569Z,27.60
2018-07-25T21:50:39.372Z,27.60
2018-07-25T21:52:43.203Z,27.30
2018-07-25T21:54:46.990Z,26.80
2018-07-25T21:56:50.768Z,26.40
2018-07-25T22:01:03.108Z,25.70
2018-07-25T22:03:06.899Z,25.50
2018-07-25T22:05:11.109Z,25.30
2018-07-25T22:07:14.907Z,25.20
2018-07-25T22:09:18.762Z,25.00
2018-07-25T22:11:22.692Z,25.30
2018-07-25T22:13:26.531Z,25.90
2018-07-25T22:15:30.319Z,26.40
2018-07-25T22:17:34.246Z,26.60
2018-07-25T22:19:38.214Z,26.80
2018-07-25T22:21:41.988Z,26.90
2018-07-25T22:23:45.808Z,27.00
2018-07-25T22:25:49.555Z,27.10
2018-07-25T22:27:53.475Z,26.60
2018-07-25T22:29:57.238Z,26.10
2018-07-25T22:32:01.131Z,25.70
2018-07-25T22:34:04.918Z,25.40
2018-07-25T22:36:09.238Z,25.10
2018-07-25T22:38:13.026Z,25.00
2018-07-25T22:40:18.002Z,24.80
2018-07-25T22:42:21.805Z,24.80
2018-07-25T22:44:25.584Z,24.80
2018-07-25T22:46:29.347Z,25.20
2018-07-25T22:48:33.197Z,25.70
2018-07-25T22:50:36.973Z,26.20
2018-07-25T22:52:40.772Z,26.30
2018-07-25T22:54:44.679Z,26.50
2018-07-25T22:56:48.468Z,26.60
2018-07-25T22:58:52.245Z,26.60
2018-07-25T23:00:56.061Z,26.30
2018-07-25T23:02:59.878Z,25.90
2018-07-25T23:05:03.767Z,25.40
2018-07-25T23:07:07.673Z,25.10
2018-07-25T23:09:12.175Z,24.90
2018-07-25T23:11:16.051Z,24.70
2018-07-25T23:13:19.775Z,24.50
2018-07-25T23:15:23.563Z,24.30
2018-07-25T23:17:27.354Z,24.10
2018-07-25T23:19:31.503Z,24.50
2018-07-25T23:21:35.310Z,25.00
2018-07-25T23:23:39.106Z,25.40
2018-07-25T23:25:42.876Z,25.80
2018-07-25T23:27:46.685Z,26.00
2018-07-25T23:29:50.463Z,26.10
2018-07-25T23:31:54.307Z,26.30
2018-07-25T23:33:58.292Z,26.10
2018-07-25T23:36:02.053Z,25.60
2018-07-25T23:38:05.842Z,25.20
2018-07-25T23:40:09.798Z,24.80
2018-07-25T23:42:13.599Z,24.50
2018-07-25T23:44:17.345Z,24.30
2018-07-25T23:46:21.104Z,24.20
2018-07-25T23:48:24.887Z,24.00
2018-07-25T23:50:28.705Z,23.90
2018-07-25T23:52:32.510Z,24.10
2018-07-25T23:54:36.353Z,24.80
2018-07-25T23:56:40.099Z,25.30
2018-07-25T23:58:43.883Z,25.60
